sensor_id;sensor_type;location;lat;lon;timestamp;P1;durP1;ratioP1;P2;durP2;ratioP2
78209;SDS011;67485;48.816;9.930;2023-03-03T00:01:19;35.63;;;17.88;;
78209;SDS011;67485;48.816;9.930;2023-03-03T00:03:45;36.87;;;17.27;;
78209;SDS011;67485;48.816;9.930;2023-03-03T00:06:11;36.90;;;17.60;;
78209;SDS011;67485;48.816;9.930;2023-03-03T00:08:38;36.13;;;18.03;;
78209;SDS011;67485;48.816;9.930;2023-03-03T00:11:04;35.78;;;17.60;;
78209;SDS011;67485;48.816;9.930;2023-03-03T00:13:32;36.80;;;16.80;;
78209;SDS011;67485;48.816;9.930;2023-03-03T00:16:12;34.30;;;17.05;;
78209;SDS011;67485;48.816;9.930;2023-03-03T00:18:40;34.05;;;17.80;;
78209;SDS011;67485;48.816;9.930;2023-03-03T00:24:04;34.67;;;17.20;;
78209;SDS011;67485;48.816;9.930;2023-03-03T00:26:41;38.08;;;16.73;;
78209;SDS011;67485;48.816;9.930;2023-03-03T00:32:17;37.85;;;17.23;;
78209;SDS011;67485;48.816;9.930;2023-03-03T00:34:47;36.77;;;16.60;;
78209;SDS011;67485;48.816;9.930;2023-03-03T00:39:58;32.78;;;16.98;;
78209;SDS011;67485;48.816;9.930;2023-03-03T00:42:47;35.28;;;17.55;;
78209;SDS011;67485;48.816;9.930;2023-03-03T00:46:01;33.63;;;17.40;;
78209;SDS011;67485;48.816;9.930;2023-03-03T00:48:53;41.10;;;16.67;;
78209;SDS011;67485;48.816;9.930;2023-03-03T00:50:58;33.42;;;16.88;;
78209;SDS011;67485;48.816;9.930;2023-03-03T00:53:25;39.35;;;17.67;;
78209;SDS011;67485;48.816;9.930;2023-03-03T00:55:55;34.65;;;16.15;;
78209;SDS011;67485;48.816;9.930;2023-03-03T00:58:21;38.42;;;17.90;;
78209;SDS011;67485;48.816;9.930;2023-03-03T01:00:49;31.53;;;16.10;;
78209;SDS011;67485;48.816;9.930;2023-03-03T01:03:23;34.38;;;17.08;;
78209;SDS011;67485;48.816;9.930;2023-03-03T01:05:51;38.45;;;17.33;;
78209;SDS011;67485;48.816;9.930;2023-03-03T01:08:17;36.70;;;17.98;;
78209;SDS011;67485;48.816;9.930;2023-03-03T01:10:50;37.85;;;17.17;;
78209;SDS011;67485;48.816;9.930;2023-03-03T01:13:20;37.53;;;18.27;;
78209;SDS011;67485;48.816;9.930;2023-03-03T01:15:47;42.00;;;19.05;;
78209;SDS011;67485;48.816;9.930;2023-03-03T01:18:14;34.42;;;17.05;;
78209;SDS011;67485;48.816;9.930;2023-03-03T01:20:40;35.38;;;16.48;;
78209;SDS011;67485;48.816;9.930;2023-03-03T01:23:06;37.77;;;18.27;;
78209;SDS011;67485;48.816;9.930;2023-03-03T01:25:32;38.85;;;17.23;;
78209;SDS011;67485;48.816;9.930;2023-03-03T01:27:58;35.97;;;17.35;;
78209;SDS011;67485;48.816;9.930;2023-03-03T01:30:24;36.58;;;17.48;;
78209;SDS011;67485;48.816;9.930;2023-03-03T01:32:50;37.33;;;17.50;;
78209;SDS011;67485;48.816;9.930;2023-03-03T01:35:16;37.03;;;17.83;;
78209;SDS011;67485;48.816;9.930;2023-03-03T01:37:42;36.47;;;16.75;;
78209;SDS011;67485;48.816;9.930;2023-03-03T01:40:16;34.33;;;17.03;;
78209;SDS011;67485;48.816;9.930;2023-03-03T01:42:44;35.35;;;17.73;;
78209;SDS011;67485;48.816;9.930;2023-03-03T01:45:20;35.67;;;17.67;;
78209;SDS011;67485;48.816;9.930;2023-03-03T01:47:59;36.67;;;16.70;;
78209;SDS011;67485;48.816;9.930;2023-03-03T01:50:30;35.53;;;17.00;;
78209;SDS011;67485;48.816;9.930;2023-03-03T01:53:05;33.22;;;17.60;;
78209;SDS011;67485;48.816;9.930;2023-03-03T01:55:38;37.90;;;17.60;;
78209;SDS011;67485;48.816;9.930;2023-03-03T01:58:22;35.47;;;17.85;;
78209;SDS011;67485;48.816;9.930;2023-03-03T02:00:59;41.93;;;17.73;;
78209;SDS011;67485;48.816;9.930;2023-03-03T02:03:28;37.83;;;17.63;;
78209;SDS011;67485;48.816;9.930;2023-03-03T02:05:56;37.13;;;16.67;;
78209;SDS011;67485;48.816;9.930;2023-03-03T02:08:29;36.58;;;16.90;;
78209;SDS011;67485;48.816;9.930;2023-03-03T02:11:01;35.38;;;18.10;;
78209;SDS011;67485;48.816;9.930;2023-03-03T02:13:28;35.90;;;16.80;;
78209;SDS011;67485;48.816;9.930;2023-03-03T02:15:54;34.55;;;16.33;;
78209;SDS011;67485;48.816;9.930;2023-03-03T02:18:21;35.72;;;17.10;;
78209;SDS011;67485;48.816;9.930;2023-03-03T02:23:32;34.60;;;17.73;;
78209;SDS011;67485;48.816;9.930;2023-03-03T02:26:17;40.83;;;17.83;;
78209;SDS011;67485;48.816;9.930;2023-03-03T02:28:48;39.42;;;18.30;;
78209;SDS011;67485;48.816;9.930;2023-03-03T02:31:16;38.03;;;17.33;;
78209;SDS011;67485;48.816;9.930;2023-03-03T02:33:46;36.70;;;17.17;;
78209;SDS011;67485;48.816;9.930;2023-03-03T02:36:14;35.80;;;17.10;;
78209;SDS011;67485;48.816;9.930;2023-03-03T02:41:39;39.97;;;17.95;;
78209;SDS011;67485;48.816;9.930;2023-03-03T02:44:12;41.80;;;18.52;;
78209;SDS011;67485;48.816;9.930;2023-03-03T02:46:42;39.93;;;18.37;;
78209;SDS011;67485;48.816;9.930;2023-03-03T02:49:11;38.50;;;18.50;;
78209;SDS011;67485;48.816;9.930;2023-03-03T02:51:40;41.05;;;18.63;;
78209;SDS011;67485;48.816;9.930;2023-03-03T02:54:07;38.45;;;18.02;;
78209;SDS011;67485;48.816;9.930;2023-03-03T02:56:34;36.70;;;18.02;;
78209;SDS011;67485;48.816;9.930;2023-03-03T02:59:01;37.57;;;18.13;;
78209;SDS011;67485;48.816;9.930;2023-03-03T03:01:30;41.97;;;18.70;;
78209;SDS011;67485;48.816;9.930;2023-03-03T03:04:04;38.38;;;18.33;;
78209;SDS011;67485;48.816;9.930;2023-03-03T03:06:32;40.67;;;19.33;;
78209;SDS011;67485;48.816;9.930;2023-03-03T03:09:00;36.25;;;17.83;;
78209;SDS011;67485;48.816;9.930;2023-03-03T03:11:26;37.20;;;17.63;;
78209;SDS011;67485;48.816;9.930;2023-03-03T03:13:52;36.13;;;17.08;;
78209;SDS011;67485;48.816;9.930;2023-03-03T03:16:18;36.33;;;17.37;;
78209;SDS011;67485;48.816;9.930;2023-03-03T03:18:44;37.42;;;17.35;;
78209;SDS011;67485;48.816;9.930;2023-03-03T03:21:10;39.00;;;18.17;;
78209;SDS011;67485;48.816;9.930;2023-03-03T03:23:38;37.65;;;17.92;;
78209;SDS011;67485;48.816;9.930;2023-03-03T03:26:05;40.80;;;17.80;;
78209;SDS011;67485;48.816;9.930;2023-03-03T03:28:32;36.88;;;17.33;;
78209;SDS011;67485;48.816;9.930;2023-03-03T03:30:59;39.38;;;18.25;;
78209;SDS011;67485;48.816;9.930;2023-03-03T03:33:25;35.03;;;17.48;;
78209;SDS011;67485;48.816;9.930;2023-03-03T03:35:53;36.60;;;18.23;;
78209;SDS011;67485;48.816;9.930;2023-03-03T03:38:20;37.25;;;17.60;;
78209;SDS011;67485;48.816;9.930;2023-03-03T03:40:47;39.33;;;18.50;;
78209;SDS011;67485;48.816;9.930;2023-03-03T03:43:13;37.10;;;17.50;;
78209;SDS011;67485;48.816;9.930;2023-03-03T03:45:43;38.72;;;17.65;;
78209;SDS011;67485;48.816;9.930;2023-03-03T03:48:09;41.07;;;18.03;;
78209;SDS011;67485;48.816;9.930;2023-03-03T03:50:35;37.40;;;17.90;;
78209;SDS011;67485;48.816;9.930;2023-03-03T03:53:02;36.92;;;18.52;;
78209;SDS011;67485;48.816;9.930;2023-03-03T03:55:29;40.80;;;18.73;;
78209;SDS011;67485;48.816;9.930;2023-03-03T03:57:55;37.00;;;18.33;;
78209;SDS011;67485;48.816;9.930;2023-03-03T04:00:22;37.67;;;17.92;;
78209;SDS011;67485;48.816;9.930;2023-03-03T04:02:53;35.65;;;17.33;;
78209;SDS011;67485;48.816;9.930;2023-03-03T04:05:19;41.28;;;19.42;;
78209;SDS011;67485;48.816;9.930;2023-03-03T04:07:45;39.08;;;18.83;;
78209;SDS011;67485;48.816;9.930;2023-03-03T04:10:11;40.60;;;19.35;;
78209;SDS011;67485;48.816;9.930;2023-03-03T04:12:38;41.92;;;19.83;;
78209;SDS011;67485;48.816;9.930;2023-03-03T04:15:07;40.25;;;18.42;;
78209;SDS011;67485;48.816;9.930;2023-03-03T04:17:35;39.35;;;18.98;;
78209;SDS011;67485;48.816;9.930;2023-03-03T04:20:01;44.78;;;18.40;;
78209;SDS011;67485;48.816;9.930;2023-03-03T04:22:29;43.08;;;18.23;;
78209;SDS011;67485;48.816;9.930;2023-03-03T04:24:59;42.60;;;19.38;;
78209;SDS011;67485;48.816;9.930;2023-03-03T04:27:25;39.43;;;18.93;;
78209;SDS011;67485;48.816;9.930;2023-03-03T04:29:52;43.15;;;18.63;;
78209;SDS011;67485;48.816;9.930;2023-03-03T04:32:18;41.15;;;17.90;;
78209;SDS011;67485;48.816;9.930;2023-03-03T04:34:45;37.20;;;18.05;;
78209;SDS011;67485;48.816;9.930;2023-03-03T04:37:10;42.33;;;18.53;;
78209;SDS011;67485;48.816;9.930;2023-03-03T04:39:36;40.08;;;17.80;;
78209;SDS011;67485;48.816;9.930;2023-03-03T04:42:02;40.90;;;18.33;;
78209;SDS011;67485;48.816;9.930;2023-03-03T04:44:28;39.23;;;18.47;;
78209;SDS011;67485;48.816;9.930;2023-03-03T04:46:54;42.35;;;18.40;;
78209;SDS011;67485;48.816;9.930;2023-03-03T04:49:20;39.50;;;18.43;;
78209;SDS011;67485;48.816;9.930;2023-03-03T04:51:46;38.30;;;19.60;;
78209;SDS011;67485;48.816;9.930;2023-03-03T04:54:12;39.72;;;19.13;;
78209;SDS011;67485;48.816;9.930;2023-03-03T04:56:37;37.47;;;18.23;;
78209;SDS011;67485;48.816;9.930;2023-03-03T04:59:03;39.08;;;18.17;;
78209;SDS011;67485;48.816;9.930;2023-03-03T05:01:29;38.53;;;18.70;;
78209;SDS011;67485;48.816;9.930;2023-03-03T05:03:55;39.00;;;19.13;;
78209;SDS011;67485;48.816;9.930;2023-03-03T05:06:20;36.17;;;17.90;;
78209;SDS011;67485;48.816;9.930;2023-03-03T05:08:46;40.38;;;19.63;;
78209;SDS011;67485;48.816;9.930;2023-03-03T05:11:12;43.60;;;19.43;;
78209;SDS011;67485;48.816;9.930;2023-03-03T05:13:38;38.60;;;18.58;;
78209;SDS011;67485;48.816;9.930;2023-03-03T05:16:04;37.75;;;18.95;;
78209;SDS011;67485;48.816;9.930;2023-03-03T05:18:30;37.28;;;17.55;;
78209;SDS011;67485;48.816;9.930;2023-03-03T05:20:56;37.63;;;17.67;;
78209;SDS011;67485;48.816;9.930;2023-03-03T05:23:22;40.58;;;17.95;;
78209;SDS011;67485;48.816;9.930;2023-03-03T05:25:47;41.20;;;18.10;;
78209;SDS011;67485;48.816;9.930;2023-03-03T05:28:15;38.40;;;18.02;;
78209;SDS011;67485;48.816;9.930;2023-03-03T05:30:40;38.90;;;18.08;;
78209;SDS011;67485;48.816;9.930;2023-03-03T05:33:06;44.27;;;19.83;;
78209;SDS011;67485;48.816;9.930;2023-03-03T05:35:33;45.75;;;20.55;;
78209;SDS011;67485;48.816;9.930;2023-03-03T05:37:59;38.08;;;19.17;;
78209;SDS011;67485;48.816;9.930;2023-03-03T05:40:25;39.03;;;19.30;;
78209;SDS011;67485;48.816;9.930;2023-03-03T05:42:51;37.45;;;19.00;;
78209;SDS011;67485;48.816;9.930;2023-03-03T05:45:18;42.15;;;18.25;;
78209;SDS011;67485;48.816;9.930;2023-03-03T05:47:51;41.78;;;18.98;;
78209;SDS011;67485;48.816;9.930;2023-03-03T05:50:18;43.92;;;19.83;;
78209;SDS011;67485;48.816;9.930;2023-03-03T05:52:48;40.57;;;19.27;;
78209;SDS011;67485;48.816;9.930;2023-03-03T05:55:15;39.78;;;19.17;;
78209;SDS011;67485;48.816;9.930;2023-03-03T05:57:41;41.95;;;19.35;;
78209;SDS011;67485;48.816;9.930;2023-03-03T06:00:07;41.13;;;19.33;;
78209;SDS011;67485;48.816;9.930;2023-03-03T06:02:39;37.42;;;18.13;;
78209;SDS011;67485;48.816;9.930;2023-03-03T06:05:06;37.58;;;18.27;;
78209;SDS011;67485;48.816;9.930;2023-03-03T06:07:32;40.10;;;18.33;;
78209;SDS011;67485;48.816;9.930;2023-03-03T06:09:58;45.80;;;20.17;;
78209;SDS011;67485;48.816;9.930;2023-03-03T06:12:24;44.53;;;21.50;;
78209;SDS011;67485;48.816;9.930;2023-03-03T06:14:49;44.00;;;21.63;;
78209;SDS011;67485;48.816;9.930;2023-03-03T06:17:15;47.28;;;21.52;;
78209;SDS011;67485;48.816;9.930;2023-03-03T06:19:41;37.73;;;19.57;;
78209;SDS011;67485;48.816;9.930;2023-03-03T06:22:07;47.72;;;21.25;;
78209;SDS011;67485;48.816;9.930;2023-03-03T06:24:33;37.28;;;18.67;;
78209;SDS011;67485;48.816;9.930;2023-03-03T06:26:59;38.40;;;18.45;;
78209;SDS011;67485;48.816;9.930;2023-03-03T06:29:25;39.17;;;18.20;;
78209;SDS011;67485;48.816;9.930;2023-03-03T06:31:51;41.53;;;19.17;;
78209;SDS011;67485;48.816;9.930;2023-03-03T06:34:17;42.42;;;19.15;;
78209;SDS011;67485;48.816;9.930;2023-03-03T06:36:43;41.10;;;18.13;;
78209;SDS011;67485;48.816;9.930;2023-03-03T06:39:09;37.28;;;17.33;;
78209;SDS011;67485;48.816;9.930;2023-03-03T06:41:34;41.25;;;20.02;;
78209;SDS011;67485;48.816;9.930;2023-03-03T06:44:00;42.07;;;19.03;;
78209;SDS011;67485;48.816;9.930;2023-03-03T06:46:26;45.13;;;19.15;;
78209;SDS011;67485;48.816;9.930;2023-03-03T06:48:52;41.47;;;20.13;;
78209;SDS011;67485;48.816;9.930;2023-03-03T06:51:39;40.97;;;18.65;;
78209;SDS011;67485;48.816;9.930;2023-03-03T06:54:14;41.22;;;19.95;;
78209;SDS011;67485;48.816;9.930;2023-03-03T06:56:42;37.00;;;19.45;;
78209;SDS011;67485;48.816;9.930;2023-03-03T06:59:10;40.57;;;18.73;;
78209;SDS011;67485;48.816;9.930;2023-03-03T07:01:36;47.08;;;19.95;;
78209;SDS011;67485;48.816;9.930;2023-03-03T07:06:46;39.30;;;20.25;;
78209;SDS011;67485;48.816;9.930;2023-03-03T07:09:16;43.70;;;20.63;;
78209;SDS011;67485;48.816;9.930;2023-03-03T07:11:48;44.03;;;20.52;;
78209;SDS011;67485;48.816;9.930;2023-03-03T07:14:17;40.53;;;20.48;;
78209;SDS011;67485;48.816;9.930;2023-03-03T07:16:44;40.78;;;19.77;;
78209;SDS011;67485;48.816;9.930;2023-03-03T07:19:16;41.65;;;20.50;;
78209;SDS011;67485;48.816;9.930;2023-03-03T07:21:45;41.73;;;19.60;;
78209;SDS011;67485;48.816;9.930;2023-03-03T07:29:30;44.35;;;21.08;;
78209;SDS011;67485;48.816;9.930;2023-03-03T07:31:58;42.47;;;20.02;;
78209;SDS011;67485;48.816;9.930;2023-03-03T07:40:20;44.30;;;20.33;;
78209;SDS011;67485;48.816;9.930;2023-03-03T07:45:44;44.90;;;21.05;;
78209;SDS011;67485;48.816;9.930;2023-03-03T07:48:23;41.30;;;21.73;;
78209;SDS011;67485;48.816;9.930;2023-03-03T07:50:55;44.15;;;20.90;;
78209;SDS011;67485;48.816;9.930;2023-03-03T07:53:28;43.30;;;21.05;;
78209;SDS011;67485;48.816;9.930;2023-03-03T07:55:59;43.42;;;20.33;;
78209;SDS011;67485;48.816;9.930;2023-03-03T07:58:38;42.15;;;20.90;;
78209;SDS011;67485;48.816;9.930;2023-03-03T08:03:53;44.72;;;20.75;;
78209;SDS011;67485;48.816;9.930;2023-03-03T08:06:36;42.43;;;20.23;;
78209;SDS011;67485;48.816;9.930;2023-03-03T08:11:57;43.07;;;21.90;;
78209;SDS011;67485;48.816;9.930;2023-03-03T08:14:27;41.03;;;20.27;;
78209;SDS011;67485;48.816;9.930;2023-03-03T08:16:55;44.92;;;21.60;;
78209;SDS011;67485;48.816;9.930;2023-03-03T08:19:21;44.47;;;22.00;;
78209;SDS011;67485;48.816;9.930;2023-03-03T08:21:48;43.95;;;21.55;;
78209;SDS011;67485;48.816;9.930;2023-03-03T08:24:14;41.87;;;21.23;;
78209;SDS011;67485;48.816;9.930;2023-03-03T08:26:39;44.38;;;22.33;;
78209;SDS011;67485;48.816;9.930;2023-03-03T08:29:05;47.83;;;22.10;;
78209;SDS011;67485;48.816;9.930;2023-03-03T08:31:31;51.38;;;21.65;;
78209;SDS011;67485;48.816;9.930;2023-03-03T08:33:57;41.10;;;20.60;;
78209;SDS011;67485;48.816;9.930;2023-03-03T08:36:23;44.78;;;22.02;;
78209;SDS011;67485;48.816;9.930;2023-03-03T08:38:49;47.33;;;22.38;;
78209;SDS011;67485;48.816;9.930;2023-03-03T08:41:14;46.57;;;22.33;;
78209;SDS011;67485;48.816;9.930;2023-03-03T08:43:40;46.08;;;22.63;;
78209;SDS011;67485;48.816;9.930;2023-03-03T08:46:09;54.67;;;24.15;;
78209;SDS011;67485;48.816;9.930;2023-03-03T08:48:36;48.83;;;23.00;;
78209;SDS011;67485;48.816;9.930;2023-03-03T08:51:02;47.28;;;23.25;;
78209;SDS011;67485;48.816;9.930;2023-03-03T08:53:28;48.17;;;23.23;;
78209;SDS011;67485;48.816;9.930;2023-03-03T08:55:54;44.42;;;22.88;;
78209;SDS011;67485;48.816;9.930;2023-03-03T08:58:20;48.03;;;22.83;;
78209;SDS011;67485;48.816;9.930;2023-03-03T09:00:46;47.37;;;23.37;;
78209;SDS011;67485;48.816;9.930;2023-03-03T09:03:12;46.85;;;22.63;;
78209;SDS011;67485;48.816;9.930;2023-03-03T09:05:38;47.17;;;23.93;;
78209;SDS011;67485;48.816;9.930;2023-03-03T09:08:05;44.65;;;23.55;;
78209;SDS011;67485;48.816;9.930;2023-03-03T09:10:32;40.72;;;21.77;;
78209;SDS011;67485;48.816;9.930;2023-03-03T09:13:07;43.20;;;21.98;;
78209;SDS011;67485;48.816;9.930;2023-03-03T09:15:38;43.70;;;22.03;;
78209;SDS011;67485;48.816;9.930;2023-03-03T09:18:16;40.30;;;20.73;;
78209;SDS011;67485;48.816;9.930;2023-03-03T09:25:56;41.05;;;21.45;;
78209;SDS011;67485;48.816;9.930;2023-03-03T09:28:24;43.72;;;23.30;;
78209;SDS011;67485;48.816;9.930;2023-03-03T09:30:53;46.33;;;22.00;;
78209;SDS011;67485;48.816;9.930;2023-03-03T09:33:26;44.75;;;22.42;;
78209;SDS011;67485;48.816;9.930;2023-03-03T09:36:27;42.07;;;21.10;;
78209;SDS011;67485;48.816;9.930;2023-03-03T09:38:59;44.70;;;21.45;;
78209;SDS011;67485;48.816;9.930;2023-03-03T09:50:16;42.47;;;20.27;;
78209;SDS011;67485;48.816;9.930;2023-03-03T09:53:12;43.25;;;21.40;;
78209;SDS011;67485;48.816;9.930;2023-03-03T10:04:05;36.60;;;20.77;;
78209;SDS011;67485;48.816;9.930;2023-03-03T10:06:48;45.60;;;20.70;;
78209;SDS011;67485;48.816;9.930;2023-03-03T10:09:33;35.53;;;18.88;;
78209;SDS011;67485;48.816;9.930;2023-03-03T10:12:19;34.35;;;17.63;;
78209;SDS011;67485;48.816;9.930;2023-03-03T10:14:55;35.13;;;18.10;;
78209;SDS011;67485;48.816;9.930;2023-03-03T10:20:04;37.00;;;17.95;;
78209;SDS011;67485;48.816;9.930;2023-03-03T10:22:49;37.30;;;18.95;;
78209;SDS011;67485;48.816;9.930;2023-03-03T10:31:10;31.67;;;16.20;;
78209;SDS011;67485;48.816;9.930;2023-03-03T10:36:24;32.88;;;16.83;;
78209;SDS011;67485;48.816;9.930;2023-03-03T10:42:02;26.10;;;14.20;;
78209;SDS011;67485;48.816;9.930;2023-03-03T10:50:33;29.08;;;15.05;;
78209;SDS011;67485;48.816;9.930;2023-03-03T10:53:12;31.07;;;16.00;;
78209;SDS011;67485;48.816;9.930;2023-03-03T10:59:01;30.02;;;14.85;;
78209;SDS011;67485;48.816;9.930;2023-03-03T11:04:34;26.98;;;14.43;;
78209;SDS011;67485;48.816;9.930;2023-03-03T11:07:23;24.23;;;14.07;;
78209;SDS011;67485;48.816;9.930;2023-03-03T11:23:48;26.42;;;13.73;;
78209;SDS011;67485;48.816;9.930;2023-03-03T11:34:35;25.87;;;13.83;;
78209;SDS011;67485;48.816;9.930;2023-03-03T11:37:28;28.42;;;14.45;;
78209;SDS011;67485;48.816;9.930;2023-03-03T11:40:11;25.60;;;13.38;;
78209;SDS011;67485;48.816;9.930;2023-03-03T11:42:46;23.70;;;12.90;;
78209;SDS011;67485;48.816;9.930;2023-03-03T11:45:19;25.60;;;14.20;;
78209;SDS011;67485;48.816;9.930;2023-03-03T11:48:03;22.83;;;12.57;;
78209;SDS011;67485;48.816;9.930;2023-03-03T11:56:13;23.40;;;13.18;;
78209;SDS011;67485;48.816;9.930;2023-03-03T12:01:35;24.63;;;13.23;;
78209;SDS011;67485;48.816;9.930;2023-03-03T12:04:09;24.65;;;13.38;;
78209;SDS011;67485;48.816;9.930;2023-03-03T12:12:18;26.48;;;14.30;;
78209;SDS011;67485;48.816;9.930;2023-03-03T12:25:41;22.60;;;14.20;;
78209;SDS011;67485;48.816;9.930;2023-03-03T12:28:23;24.80;;;14.20;;
78209;SDS011;67485;48.816;9.930;2023-03-03T12:36:51;26.00;;;14.80;;
78209;SDS011;67485;48.816;9.930;2023-03-03T12:42:18;23.90;;;14.07;;
78209;SDS011;67485;48.816;9.930;2023-03-03T12:47:40;26.38;;;15.85;;
78209;SDS011;67485;48.816;9.930;2023-03-03T13:09:39;22.63;;;15.00;;
78209;SDS011;67485;48.816;9.930;2023-03-03T13:14:45;25.17;;;15.40;;
78209;SDS011;67485;48.816;9.930;2023-03-03T13:20:18;26.67;;;14.45;;
78209;SDS011;67485;48.816;9.930;2023-03-03T13:23:11;22.13;;;13.70;;
78209;SDS011;67485;48.816;9.930;2023-03-03T13:25:52;22.40;;;13.77;;
78209;SDS011;67485;48.816;9.930;2023-03-03T13:30:55;24.85;;;14.43;;
78209;SDS011;67485;48.816;9.930;2023-03-03T13:33:27;26.35;;;14.07;;
78209;SDS011;67485;48.816;9.930;2023-03-03T13:36:06;26.80;;;14.80;;
78209;SDS011;67485;48.816;9.930;2023-03-03T13:38:42;25.17;;;14.32;;
78209;SDS011;67485;48.816;9.930;2023-03-03T13:44:16;25.73;;;14.60;;
78209;SDS011;67485;48.816;9.930;2023-03-03T13:52:28;30.15;;;14.23;;
78209;SDS011;67485;48.816;9.930;2023-03-03T14:00:51;24.00;;;14.13;;
78209;SDS011;67485;48.816;9.930;2023-03-03T14:06:03;26.90;;;14.00;;
78209;SDS011;67485;48.816;9.930;2023-03-03T14:19:27;25.08;;;14.75;;
78209;SDS011;67485;48.816;9.930;2023-03-03T14:22:17;25.15;;;14.57;;
78209;SDS011;67485;48.816;9.930;2023-03-03T14:35:34;24.95;;;14.15;;
78209;SDS011;67485;48.816;9.930;2023-03-03T14:40:34;29.02;;;14.90;;
78209;SDS011;67485;48.816;9.930;2023-03-03T14:43:04;33.92;;;15.75;;
78209;SDS011;67485;48.816;9.930;2023-03-03T14:45:45;34.58;;;15.70;;
78209;SDS011;67485;48.816;9.930;2023-03-03T14:48:21;23.07;;;13.77;;
78209;SDS011;67485;48.816;9.930;2023-03-03T14:50:49;25.13;;;14.40;;
78209;SDS011;67485;48.816;9.930;2023-03-03T14:55:43;25.10;;;14.73;;
78209;SDS011;67485;48.816;9.930;2023-03-03T14:59:00;27.05;;;15.18;;
78209;SDS011;67485;48.816;9.930;2023-03-03T15:01:06;27.85;;;15.50;;
78209;SDS011;67485;48.816;9.930;2023-03-03T15:03:33;24.50;;;14.90;;
78209;SDS011;67485;48.816;9.930;2023-03-03T15:06:06;31.10;;;15.77;;
78209;SDS011;67485;48.816;9.930;2023-03-03T15:08:36;28.80;;;15.80;;
78209;SDS011;67485;48.816;9.930;2023-03-03T15:11:11;32.30;;;15.38;;
78209;SDS011;67485;48.816;9.930;2023-03-03T15:13:44;28.17;;;14.85;;
78209;SDS011;67485;48.816;9.930;2023-03-03T15:16:11;30.40;;;14.97;;
78209;SDS011;67485;48.816;9.930;2023-03-03T15:19:00;26.10;;;14.63;;
78209;SDS011;67485;48.816;9.930;2023-03-03T15:24:45;28.77;;;14.63;;
78209;SDS011;67485;48.816;9.930;2023-03-03T15:27:23;23.85;;;14.70;;
78209;SDS011;67485;48.816;9.930;2023-03-03T15:41:25;26.05;;;14.73;;
78209;SDS011;67485;48.816;9.930;2023-03-03T15:57:42;32.93;;;14.87;;
78209;SDS011;67485;48.816;9.930;2023-03-03T16:00:47;26.55;;;14.98;;
78209;SDS011;67485;48.816;9.930;2023-03-03T16:03:34;34.40;;;15.65;;
78209;SDS011;67485;48.816;9.930;2023-03-03T16:06:10;29.83;;;15.30;;
78209;SDS011;67485;48.816;9.930;2023-03-03T16:11:41;27.10;;;15.23;;
78209;SDS011;67485;48.816;9.930;2023-03-03T16:16:53;27.30;;;15.60;;
78209;SDS011;67485;48.816;9.930;2023-03-03T16:19:50;27.35;;;15.30;;
78209;SDS011;67485;48.816;9.930;2023-03-03T16:22:32;32.42;;;16.98;;
78209;SDS011;67485;48.816;9.930;2023-03-03T16:30:32;33.22;;;16.83;;
78209;SDS011;67485;48.816;9.930;2023-03-03T16:34:02;33.05;;;16.85;;
78209;SDS011;67485;48.816;9.930;2023-03-03T16:39:20;30.35;;;17.10;;
78209;SDS011;67485;48.816;9.930;2023-03-03T16:42:37;42.50;;;19.53;;
78209;SDS011;67485;48.816;9.930;2023-03-03T16:45:53;48.47;;;23.02;;
78209;SDS011;67485;48.816;9.930;2023-03-03T16:50:26;47.42;;;23.88;;
78209;SDS011;67485;48.816;9.930;2023-03-03T16:53:08;50.67;;;24.83;;
78209;SDS011;67485;48.816;9.930;2023-03-03T17:04:16;32.95;;;19.30;;
78209;SDS011;67485;48.816;9.930;2023-03-03T17:07:56;35.73;;;18.43;;
78209;SDS011;67485;48.816;9.930;2023-03-03T17:10:58;34.03;;;18.17;;
78209;SDS011;67485;48.816;9.930;2023-03-03T17:13:18;31.58;;;17.25;;
78209;SDS011;67485;48.816;9.930;2023-03-03T17:16:13;35.13;;;17.30;;
78209;SDS011;67485;48.816;9.930;2023-03-03T17:18:55;35.60;;;18.52;;
78209;SDS011;67485;48.816;9.930;2023-03-03T17:35:27;36.67;;;18.80;;
78209;SDS011;67485;48.816;9.930;2023-03-03T17:38:17;58.13;;;28.23;;
78209;SDS011;67485;48.816;9.930;2023-03-03T17:43:58;80.78;;;38.35;;
78209;SDS011;67485;48.816;9.930;2023-03-03T17:46:48;53.90;;;26.90;;
78209;SDS011;67485;48.816;9.930;2023-03-03T18:19:37;38.67;;;20.55;;
78209;SDS011;67485;48.816;9.930;2023-03-03T18:22:17;45.72;;;22.92;;
78209;SDS011;67485;48.816;9.930;2023-03-03T18:33:06;58.00;;;26.60;;
78209;SDS011;67485;48.816;9.930;2023-03-03T18:41:01;37.90;;;18.08;;
78209;SDS011;67485;48.816;9.930;2023-03-03T18:43:46;34.50;;;17.00;;
78209;SDS011;67485;48.816;9.930;2023-03-03T18:56:48;32.92;;;17.38;;
78209;SDS011;67485;48.816;9.930;2023-03-03T19:05:03;33.80;;;17.95;;
78209;SDS011;67485;48.816;9.930;2023-03-03T19:21:03;34.05;;;17.58;;
78209;SDS011;67485;48.816;9.930;2023-03-03T19:26:43;31.15;;;16.00;;
78209;SDS011;67485;48.816;9.930;2023-03-03T19:37:53;37.07;;;17.57;;
78209;SDS011;67485;48.816;9.930;2023-03-03T19:40:27;35.10;;;18.30;;
78209;SDS011;67485;48.816;9.930;2023-03-03T19:43:07;39.03;;;18.02;;
78209;SDS011;67485;48.816;9.930;2023-03-03T19:45:39;36.55;;;18.20;;
78209;SDS011;67485;48.816;9.930;2023-03-03T19:48:24;36.08;;;18.45;;
78209;SDS011;67485;48.816;9.930;2023-03-03T19:51:08;40.10;;;18.23;;
78209;SDS011;67485;48.816;9.930;2023-03-03T19:56:58;37.85;;;18.38;;
78209;SDS011;67485;48.816;9.930;2023-03-03T20:02:13;39.50;;;19.25;;
78209;SDS011;67485;48.816;9.930;2023-03-03T20:04:51;38.90;;;18.92;;
78209;SDS011;67485;48.816;9.930;2023-03-03T20:13:15;42.88;;;19.83;;
78209;SDS011;67485;48.816;9.930;2023-03-03T20:16:14;37.97;;;18.45;;
78209;SDS011;67485;48.816;9.930;2023-03-03T20:27:00;33.60;;;16.58;;
78209;SDS011;67485;48.816;9.930;2023-03-03T20:38:03;41.80;;;20.02;;
78209;SDS011;67485;48.816;9.930;2023-03-03T20:52:06;37.28;;;17.65;;
78209;SDS011;67485;48.816;9.930;2023-03-03T20:54:45;36.65;;;16.70;;
78209;SDS011;67485;48.816;9.930;2023-03-03T21:03:13;35.03;;;16.65;;
78209;SDS011;67485;48.816;9.930;2023-03-03T21:05:58;34.45;;;16.95;;
78209;SDS011;67485;48.816;9.930;2023-03-03T21:13:55;35.40;;;17.13;;
78209;SDS011;67485;48.816;9.930;2023-03-03T21:21:46;34.97;;;16.63;;
78209;SDS011;67485;48.816;9.930;2023-03-03T21:24:14;35.08;;;16.95;;
78209;SDS011;67485;48.816;9.930;2023-03-03T21:26:48;35.83;;;17.17;;
78209;SDS011;67485;48.816;9.930;2023-03-03T21:29:15;36.35;;;18.58;;
78209;SDS011;67485;48.816;9.930;2023-03-03T21:31:47;36.40;;;17.80;;
78209;SDS011;67485;48.816;9.930;2023-03-03T21:34:22;34.70;;;16.65;;
78209;SDS011;67485;48.816;9.930;2023-03-03T21:36:51;35.85;;;18.55;;
78209;SDS011;67485;48.816;9.930;2023-03-03T21:39:18;33.05;;;16.38;;
78209;SDS011;67485;48.816;9.930;2023-03-03T21:41:51;33.33;;;16.85;;
78209;SDS011;67485;48.816;9.930;2023-03-03T21:44:31;33.55;;;16.80;;
78209;SDS011;67485;48.816;9.930;2023-03-03T21:46:59;34.20;;;16.77;;
78209;SDS011;67485;48.816;9.930;2023-03-03T21:49:26;37.20;;;17.45;;
78209;SDS011;67485;48.816;9.930;2023-03-03T21:51:53;34.53;;;16.92;;
78209;SDS011;67485;48.816;9.930;2023-03-03T21:54:19;32.15;;;16.27;;
78209;SDS011;67485;48.816;9.930;2023-03-03T21:56:44;30.07;;;15.60;;